Echelon, New Jersey
Current Conditions -  °F | °C
As of 2:54 PM on Friday 24 Oct 2014 (Local Time) from KVAY Reporting Station
Clear Clear  
Wind Chill: 67°   Ceiling: Unl
Heat Index: 67°   Visibility: 10mi
Dew Point: 44°   Wind: 14mph
Humidity: 44%   Direction: 320°NW
Pressure: 29.8"   Gusts: 22mph
Location:  39.8445°N, 74.9532°W
Report Text: KVAY 241854Z AUTO 32012G19KT 10SM CLR 19/07 A2980 RMK AO2 SLP089 T01940067
Loading
Personal Weather Stations






























Interactive Weather Map
Tropical Storm Tracking
New forecast layout! Learn more

10-Day Weather Forecast

Advertisements
Track Severe Weather on mobile